www.cux-wetter.de
Wetterdaten: Mittwoch, 22.10.2014
Datum Zeit Temp. A. Feuchte A. Luftdruck Regen Wind Richtung Richtung Sonnenschein Solar Taupunkt Windchill Windben
22.10.2014 00:01 11,4 C 84 % 996,5 hPa 0,0 l/m 33,0 km/h (5 Bft) NW 320 0 min 0 W/m 8,8 C 2,1 C 33,0 km/h (5 Bft)
22.10.2014 00:16 11,2 C 86 % 996,5 hPa 0,3 l/m 24,8 km/h (4 Bft) NW 305 0 min 0 W/m 8,9 C 3,5 C 24,8 km/h (4 Bft)
22.10.2014 00:31 11,2 C 86 % 996,5 hPa 0,3 l/m 33,2 km/h (5 Bft) NW 325 0 min 0 W/m 8,9 C 1,7 C 33,2 km/h (5 Bft)
22.10.2014 00:46 11,4 C 85 % 996,5 hPa 0,0 l/m 26,7 km/h (4 Bft) NW 315 0 min 0 W/m 9,0 C 3,3 C 26,7 km/h (4 Bft)
22.10.2014 01:01 11,7 C 83 % 996,5 hPa 0,0 l/m 38,3 km/h (6 Bft) NW 320 0 min 0 W/m 8,9 C 1,7 C 38,3 km/h (6 Bft)
22.10.2014 01:16 11,8 C 82 % 997,5 hPa 0,0 l/m 32,2 km/h (5 Bft) NW 320 0 min 0 W/m 8,8 C 2,8 C 32,2 km/h (5 Bft)
22.10.2014 01:31 11,9 C 82 % 997,5 hPa 0,0 l/m 35,7 km/h (5 Bft) N-NW 330 0 min 0 W/m 8,9 C 2,3 C 35,7 km/h (5 Bft)
22.10.2014 01:46 11,9 C 84 % 997,5 hPa 0,0 l/m 40,9 km/h (6 Bft) NW 325 0 min 0 W/m 9,3 C 1,6 C 40,9 km/h (6 Bft)
22.10.2014 02:01 11,7 C 85 % 997,5 hPa 0,0 l/m 44,2 km/h (6 Bft) NW 325 0 min 0 W/m 9,3 C 0,9 C 44,2 km/h (6 Bft)
22.10.2014 02:16 11,5 C 86 % 998,5 hPa 0,3 l/m 41,8 km/h (6 Bft) NW 320 0 min 0 W/m 9,2 C 0,9 C 41,8 km/h (6 Bft)
22.10.2014 02:31 11,5 C 86 % 998,5 hPa 0,0 l/m 43,1 km/h (6 Bft) N 355 0 min 0 W/m 9,2 C 0,7 C 43,1 km/h (6 Bft)
22.10.2014 02:46 11,6 C 83 % 998,5 hPa 0,0 l/m 46,7 km/h (6 Bft) N-NW 335 0 min 0 W/m 8,8 C 0,5 C 46,7 km/h (6 Bft)
22.10.2014 03:01 11,7 C 82 % 998,5 hPa 0,0 l/m 52,6 km/h (7 Bft) N 350 0 min 0 W/m 8,7 C 0,1 C 52,6 km/h (7 Bft)
22.10.2014 03:16 11,8 C 81 % 999,5 hPa 0,0 l/m 51,1 km/h (7 Bft) NW 325 0 min 0 W/m 8,6 C 0,4 C 51,1 km/h (7 Bft)
22.10.2014 03:31 11,8 C 79 % 999,5 hPa 0,0 l/m 53,4 km/h (7 Bft) N-NW 330 0 min 0 W/m 8,3 C 0,2 C 53,4 km/h (7 Bft)
22.10.2014 03:46 11,8 C 80 % 999,5 hPa 0,0 l/m 52,3 km/h (7 Bft) NW 325 0 min 0 W/m 8,5 C 0,2 C 52,3 km/h (7 Bft)
22.10.2014 04:01 11,8 C 79 % 999,5 hPa 0,0 l/m 54,4 km/h (7 Bft) N-NW 330 0 min 0 W/m 8,3 C 0,1 C 54,4 km/h (7 Bft)
22.10.2014 04:16 11,7 C 81 % 999,5 hPa 0,0 l/m 47,3 km/h (6 Bft) NW 325 0 min 0 W/m 8,5 C 0,6 C 47,3 km/h (6 Bft)
22.10.2014 04:31 11,7 C 81 % 999,5 hPa 0,0 l/m 52,5 km/h (7 Bft) N-NW 335 0 min 0 W/m 8,5 C 0,1 C 52,5 km/h (7 Bft)
22.10.2014 04:45 11,7 C 81 % 999,5 hPa 0,0 l/m 55,2 km/h (7 Bft) N-NW 335 0 min 0 W/m 8,5 C -0,1 C 55,2 km/h (7 Bft)
22.10.2014 05:01 11,7 C 82 % 999,5 hPa 0,0 l/m 47,5 km/h (6 Bft) N-NW 330 0 min 0 W/m 8,7 C 0,5 C 47,5 km/h (6 Bft)
22.10.2014 05:16 11,7 C 81 % 999,5 hPa 0,0 l/m 57,2 km/h (7 Bft) N-NW 330 0 min 0 W/m 8,5 C -0,3 C 57,2 km/h (7 Bft)
22.10.2014 05:31 11,6 C 84 % 999,5 hPa 0,0 l/m 62,5 km/h (7 Bft) NW 325 0 min 0 W/m 9,0 C -0,8 C 62,5 km/h (7 Bft)
22.10.2014 05:45 11,4 C 85 % 999,5 hPa 0,0 l/m 53,5 km/h (7 Bft) NW 315 0 min 0 W/m 9,0 C -0,5 C 53,5 km/h (7 Bft)
22.10.2014 06:01 11,4 C 87 % 999,5 hPa 0,0 l/m 46,9 km/h (6 Bft) N-NW 330 0 min 0 W/m 9,3 C 0,1 C 46,9 km/h (6 Bft)
22.10.2014 06:16 11,3 C 88 % 999,5 hPa 0,0 l/m 42,4 km/h (6 Bft) N-NW 335 0 min 0 W/m 9,4 C 0,5 C 42,4 km/h (6 Bft)
22.10.2014 06:31 11,4 C 89 % 999,5 hPa 0,3 l/m 45,0 km/h (6 Bft) N-NW 340 0 min 0 W/m 9,7 C 0,3 C 45,0 km/h (6 Bft)
22.10.2014 06:46 11,6 C 89 % 999,5 hPa 0,3 l/m 47,2 km/h (6 Bft) N-NW 340 0 min 0 W/m 9,8 C 0,4 C 47,2 km/h (6 Bft)
22.10.2014 07:01 11,5 C 89 % 999,5 hPa 0,9 l/m 54,4 km/h (7 Bft) N 360 0 min 0 W/m 9,8 C -0,4 C 54,4 km/h (7 Bft)
22.10.2014 07:16 11,4 C 89 % 999,5 hPa 1,2 l/m 49,1 km/h (7 Bft) N 10 0 min 0 W/m 9,7 C -0,1 C 49,1 km/h (7 Bft)
22.10.2014 07:31 11,4 C 89 % 1000,5 hPa 1,8 l/m 52,1 km/h (7 Bft) NW 320 0 min 0 W/m 9,7 C -0,4 C 52,1 km/h (7 Bft)
22.10.2014 07:45 11,5 C 89 % 1000,5 hPa 0,3 l/m 54,7 km/h (7 Bft) N 5 0 min 0 W/m 9,8 C -0,4 C 54,7 km/h (7 Bft)
22.10.2014 08:01 11,5 C 89 % 1000,5 hPa 0,9 l/m 53,3 km/h (7 Bft) N 360 0 min 0 W/m 9,8 C -0,3 C 53,3 km/h (7 Bft)
22.10.2014 08:16 11,6 C 89 % 1000,5 hPa 0,9 l/m 51,6 km/h (7 Bft) N 360 0 min 0 W/m 9,8 C -0,0 C 51,6 km/h (7 Bft)
22.10.2014 08:31 11,5 C 90 % 1001,5 hPa 0,9 l/m 52,2 km/h (7 Bft) N-NO 25 0 min 0 W/m 9,9 C -0,2 C 52,2 km/h (7 Bft)
22.10.2014 08:45 11,6 C 90 % 1001,5 hPa 0,6 l/m 58,3 km/h (7 Bft) N-NO 25 0 min 0 W/m 10,0 C -0,5 C 58,3 km/h (7 Bft)
22.10.2014 09:01 11,8 C 90 % 1001,5 hPa 0,3 l/m 58,5 km/h (7 Bft) N-NO 15 0 min 0 W/m 10,2 C -0,2 C 58,5 km/h (7 Bft)
22.10.2014 09:16 11,8 C 91 % 1002,5 hPa 0,3 l/m 53,2 km/h (7 Bft) N-NO 25 0 min 0 W/m 10,4 C 0,2 C 53,2 km/h (7 Bft)
22.10.2014 09:31 11,7 C 90 % 1002,5 hPa 0,0 l/m 59,3 km/h (7 Bft) NO 40 0 min 0 W/m 10,1 C -0,4 C 59,3 km/h (7 Bft)
22.10.2014 09:45 12,0 C 90 % 1003,5 hPa 0,3 l/m 51,4 km/h (7 Bft) N-NO 20 0 min 0 W/m 10,4 C 0,6 C 51,4 km/h (7 Bft)
22.10.2014 10:01 12,0 C 90 % 1003,5 hPa 0,0 l/m 50,6 km/h (7 Bft) N-NO 15 0 min 0 W/m 10,4 C 0,7 C 50,6 km/h (7 Bft)
22.10.2014 10:16 11,9 C 90 % 1003,5 hPa 0,0 l/m 53,2 km/h (7 Bft) N-NO 25 0 min 0 W/m 10,3 C 0,3 C 53,2 km/h (7 Bft)
22.10.2014 10:31 12,0 C 90 % 1004,5 hPa 0,0 l/m 52,4 km/h (7 Bft) NO 35 0 min 0 W/m 10,4 C 0,5 C 52,4 km/h (7 Bft)
22.10.2014 10:45 11,8 C 91 % 1004,5 hPa 0,0 l/m 58,2 km/h (7 Bft) NO 35 0 min 0 W/m 10,4 C -0,2 C 58,2 km/h (7 Bft)
22.10.2014 11:01 12,0 C 91 % 1004,5 hPa 0,0 l/m 52,0 km/h (7 Bft) NO 35 0 min 0 W/m 10,6 C 0,6 C 52,0 km/h (7 Bft)
22.10.2014 11:16 12,0 C 90 % 1005,5 hPa 0,0 l/m 48,9 km/h (7 Bft) NO 40 0 min 0 W/m 10,4 C 0,9 C 48,9 km/h (7 Bft)
22.10.2014 11:31 12,3 C 89 % 1005,5 hPa 0,0 l/m 48,4 km/h (6 Bft) N 5 0 min 0 W/m 10,5 C 1,4 C 48,4 km/h (6 Bft)
22.10.2014 11:46 12,2 C 90 % 1006,5 hPa 0,0 l/m 51,9 km/h (7 Bft) N-NO 30 0 min 0 W/m 10,6 C 0,9 C 51,9 km/h (7 Bft)
22.10.2014 12:01 12,4 C 89 % 1006,5 hPa 0,0 l/m 54,4 km/h (7 Bft) N-NO 30 0 min 0 W/m 10,6 C 1,0 C 54,4 km/h (7 Bft)
22.10.2014 12:16 12,5 C 88 % 1006,5 hPa 0,0 l/m 49,7 km/h (7 Bft) N-NO 15 0 min 0 W/m 10,6 C 1,6 C 49,7 km/h (7 Bft)
22.10.2014 12:31 12,6 C 87 % 1006,5 hPa 0,0 l/m 47,7 km/h (6 Bft) N-NO 15 0 min 0 W/m 10,5 C 1,9 C 47,7 km/h (6 Bft)
22.10.2014 12:46 12,8 C 86 % 1007,5 hPa 0,0 l/m 49,0 km/h (7 Bft) N-NO 30 0 min 0 W/m 10,5 C 2,1 C 49,0 km/h (7 Bft)
22.10.2014 13:01 12,9 C 86 % 1007,5 hPa 0,0 l/m 50,8 km/h (7 Bft) N-NO 25 0 min 0 W/m 10,6 C 2,1 C 50,8 km/h (7 Bft)
22.10.2014 13:16 12,9 C 86 % 1007,5 hPa 0,0 l/m 47,7 km/h (6 Bft) NO 35 0 min 0 W/m 10,6 C 2,3 C 47,7 km/h (6 Bft)
22.10.2014 13:31 13,1 C 85 % 1007,5 hPa 0,0 l/m 45,9 km/h (6 Bft) NO 40 0 min 0 W/m 10,6 C 2,8 C 45,9 km/h (6 Bft)
22.10.2014 13:46 13,2 C 83 % 1008,5 hPa 0,0 l/m 47,7 km/h (6 Bft) NO 40 0 min 0 W/m 10,4 C 2,8 C 47,7 km/h (6 Bft)
22.10.2014 14:01 13,0 C 84 % 1008,5 hPa 0,0 l/m 46,5 km/h (6 Bft) N-NO 30 0 min 0 W/m 10,4 C 2,6 C 46,5 km/h (6 Bft)
22.10.2014 14:16 12,5 C 87 % 1008,5 hPa 0,0 l/m 43,9 km/h (6 Bft) NO 50 0 min 0 W/m 10,4 C 2,1 C 43,9 km/h (6 Bft)
22.10.2014 14:31 12,2 C 87 % 1009,5 hPa 0,0 l/m 42,9 km/h (6 Bft) NO 45 0 min 0 W/m 10,1 C 1,8 C 42,9 km/h (6 Bft)
22.10.2014 14:46 12,4 C 88 % 1009,5 hPa 0,0 l/m 53,5 km/h (7 Bft) N 5 0 min 0 W/m 10,5 C 1,1 C 53,5 km/h (7 Bft)
22.10.2014 15:01 12,3 C 86 % 1009,5 hPa 0,0 l/m 46,3 km/h (6 Bft) NO 45 0 min 0 W/m 10,0 C 1,6 C 46,3 km/h (6 Bft)
22.10.2014 15:16 12,6 C 85 % 1010,5 hPa 0,0 l/m 40,4 km/h (6 Bft) NO 55 0 min 0 W/m 10,1 C 2,7 C 40,4 km/h (6 Bft)
22.10.2014 15:31 12,8 C 82 % 1010,5 hPa 0,0 l/m 40,5 km/h (6 Bft) NO 45 0 min 0 W/m 9,8 C 3,0 C 40,5 km/h (6 Bft)
22.10.2014 15:46 12,9 C 82 % 1010,5 hPa 0,0 l/m 42,4 km/h (6 Bft) NO 35 0 min 0 W/m 9,9 C 2,9 C 42,4 km/h (6 Bft)
22.10.2014 16:01 12,8 C 82 % 1010,5 hPa 0,0 l/m 41,1 km/h (6 Bft) NO 45 0 min 0 W/m 9,8 C 2,9 C 41,1 km/h (6 Bft)
22.10.2014 16:16 12,6 C 83 % 1010,5 hPa 0,0 l/m 43,6 km/h (6 Bft) N-NO 30 0 min 0 W/m 9,8 C 2,3 C 43,6 km/h (6 Bft)
22.10.2014 16:31 12,7 C 82 % 1011,5 hPa 0,0 l/m 38,4 km/h (6 Bft) N-NO 20 0 min 0 W/m 9,7 C 3,1 C 38,4 km/h (6 Bft)
22.10.2014 16:46 12,8 C 80 % 1011,5 hPa 0,3 l/m 44,2 km/h (6 Bft) NO 35 0 min 0 W/m 9,4 C 2,6 C 44,2 km/h (6 Bft)
22.10.2014 17:01 12,7 C 81 % 1011,5 hPa 0,0 l/m 37,4 km/h (5 Bft) NO 40 0 min 0 W/m 9,5 C 3,2 C 37,4 km/h (5 Bft)
22.10.2014 17:16 12,4 C 82 % 1011,5 hPa 0,0 l/m 39,7 km/h (6 Bft) NO 40 0 min 0 W/m 9,4 C 2,5 C 39,7 km/h (6 Bft)
22.10.2014 17:31 12,3 C 82 % 1012,5 hPa 0,0 l/m 37,7 km/h (5 Bft) NO 45 0 min 0 W/m 9,3 C 2,6 C 37,7 km/h (5 Bft)
22.10.2014 17:46 12,5 C 81 % 1012,5 hPa 0,0 l/m 38,9 km/h (6 Bft) NO 40 0 min 0 W/m 9,3 C 2,7 C 38,9 km/h (6 Bft)
22.10.2014 18:01 12,6 C 80 % 1012,5 hPa 0,0 l/m 37,8 km/h (5 Bft) NO 50 0 min 0 W/m 9,2 C 3,0 C 37,8 km/h (5 Bft)
22.10.2014 18:16 12,5 C 78 % 1013,5 hPa 0,0 l/m 41,5 km/h (6 Bft) N-NO 30 0 min 0 W/m 8,8 C 2,4 C 41,5 km/h (6 Bft)
22.10.2014 18:31 12,4 C 78 % 1013,5 hPa 0,0 l/m 32,3 km/h (5 Bft) N 5 0 min 0 W/m 8,7 C 3,6 C 32,3 km/h (5 Bft)
22.10.2014 18:46 12,6 C 77 % 1013,5 hPa 0,0 l/m 32,4 km/h (5 Bft) N-NO 25 0 min 0 W/m 8,7 C 3,9 C 32,4 km/h (5 Bft)
22.10.2014 19:00 12,6 C 76 % 1013,5 hPa 0,0 l/m 33,0 km/h (5 Bft) NO 50 0 min 0 W/m 8,5 C 3,8 C 33,0 km/h (5 Bft)
22.10.2014 19:15 12,6 C 76 % 1013,5 hPa 0,0 l/m 29,1 km/h (5 Bft) N-NO 15 0 min 0 W/m 8,5 C 4,5 C 29,1 km/h (5 Bft)
22.10.2014 19:31 12,5 C 77 % 1013,5 hPa 0,0 l/m 33,5 km/h (5 Bft) N-NO 15 0 min 0 W/m 8,6 C 3,6 C 33,5 km/h (5 Bft)
22.10.2014 19:46 12,3 C 76 % 1014,5 hPa 0,0 l/m 35,0 km/h (5 Bft) N-NO 15 0 min 0 W/m 8,2 C 3,0 C 35,0 km/h (5 Bft)
22.10.2014 20:00 12,3 C 77 % 1014,5 hPa 0,0 l/m 28,8 km/h (5 Bft) NO 55 0 min 0 W/m 8,4 C 4,1 C 28,8 km/h (5 Bft)
22.10.2014 20:15 12,3 C 75 % 1014,5 hPa 0,0 l/m 29,2 km/h (5 Bft) N-NO 20 0 min 0 W/m 8,0 C 4,0 C 29,2 km/h (5 Bft)
22.10.2014 20:31 12,4 C 76 % 1014,5 hPa 0,0 l/m 26,3 km/h (4 Bft) NO 50 0 min 0 W/m 8,3 C 4,8 C 26,3 km/h (4 Bft)
22.10.2014 20:46 12,4 C 76 % 1014,5 hPa 0,0 l/m 26,8 km/h (4 Bft) N-NO 20 0 min 0 W/m 8,3 C 4,7 C 26,8 km/h (4 Bft)
22.10.2014 21:01 12,4 C 77 % 1015,5 hPa 0,0 l/m 25,6 km/h (4 Bft) NO 40 0 min 0 W/m 8,5 C 4,9 C 25,6 km/h (4 Bft)
22.10.2014 21:16 12,4 C 79 % 1015,5 hPa 0,0 l/m 21,9 km/h (4 Bft) N-NO 15 0 min 0 W/m 8,9 C 5,9 C 21,9 km/h (4 Bft)
22.10.2014 21:31 12,3 C 78 % 1015,5 hPa 0,0 l/m 37,2 km/h (5 Bft) N 360 0 min 0 W/m 8,6 C 2,7 C 37,2 km/h (5 Bft)
22.10.2014 21:45 12,4 C 77 % 1015,5 hPa 0,0 l/m 30,0 km/h (5 Bft) N 5 0 min 0 W/m 8,5 C 4,0 C 30,0 km/h (5 Bft)
22.10.2014 22:01 12,4 C 77 % 1015,5 hPa 0,0 l/m 26,0 km/h (4 Bft) N 350 0 min 0 W/m 8,5 C 4,9 C 26,0 km/h (4 Bft)
22.10.2014 22:16 12,4 C 75 % 1015,5 hPa 0,0 l/m 23,9 km/h (4 Bft) N-NO 25 0 min 0 W/m 8,1 C 5,3 C 23,9 km/h (4 Bft)
22.10.2014 22:31 12,5 C 75 % 1016,5 hPa 0,0 l/m 31,8 km/h (5 Bft) NO 35 0 min 0 W/m 8,2 C 3,8 C 31,8 km/h (5 Bft)
22.10.2014 22:45 12,4 C 77 % 1016,5 hPa 0,0 l/m 27,0 km/h (5 Bft) N-NO 30 0 min 0 W/m 8,5 C 4,6 C 27,0 km/h (5 Bft)
22.10.2014 23:01 12,2 C 79 % 1016,5 hPa 0,0 l/m 31,7 km/h (5 Bft) N 5 0 min 0 W/m 8,7 C 3,4 C 31,7 km/h (5 Bft)
22.10.2014 23:16 12,0 C 80 % 1016,5 hPa 0,0 l/m 28,0 km/h (5 Bft) N 350 0 min 0 W/m 8,7 C 3,9 C 28,0 km/h (5 Bft)
22.10.2014 23:31 11,9 C 80 % 1016,5 hPa 0,0 l/m 24,0 km/h (4 Bft) N-NW 335 0 min 0 W/m 8,6 C 4,7 C 24,0 km/h (4 Bft)
22.10.2014 23:46 11,9 C 80 % 1016,5 hPa 0,0 l/m 26,5 km/h (4 Bft) N-NO 15 0 min 0 W/m 8,6 C 4,1 C 26,5 km/h (4 Bft)
_ Min-Zeit 00:16 20:15 00:01 - 21:16 - - - - 20:15 05:31 21:16
Minimum _ 11,2 C 75 % 996,5 hPa - 21,9 km/h (4 Bft) - - - - 8,0 C -0,8 C 21,9 km/h (4 Bft)
_ Max-Zeit 13:46 09:16 22:31 07:31 05:31 - - 00:01 00:01 12:01 21:16 05:31
Maximum _ 13,2 C 91 % 1016,5 hPa 1,8 l/m 62,5 km/h
NW (7 Bft)
- - 0 min 0 W/m 10,6 C 5,9 C 62,5 km/h
N-NW (7 Bft)
Durchschnitt _ 12,1 C 84 % 1006,3 hPa #10,2 l/m 42,9 km/h (6 Bft) N-NO - #0 min. 0 W/m 9,4 C 1,9 C 42,9 km/h (6 Bft)
copyright by Holger Just